Time;durP1;ratioP1;P1;durP2;ratioP2;P2;SDS_P1;SDS_P2;PMS_P1;PMS_P2;Temp;Humidity;BMP_temperature;BMP_pressure;BME280_temperature;BME280_humidity;BME280_pressure;Samples;Min_cycle;Max_cycle;Signal;HPM_P1;HPM_P2
2021/12/24 00:00:42;;;;;;;55.08;36.13;;;7.50;99.90;;;;;;5017529;28;20071;-76
2021/12/24 00:03:09;;;;;;;48.67;36.47;;;7.50;99.90;;;;;;5024373;28;20026;-76
2021/12/24 00:05:35;;;;;;;51.85;36.65;;;7.50;99.90;;;;;;5029953;28;20105;-76
2021/12/24 00:08:03;;;;;;;57.45;34.55;;;7.50;99.90;;;;;;5023355;28;20033;-76
2021/12/24 00:10:31;;;;;;;50.40;35.78;;;7.50;99.90;;;;;;5022057;28;20038;-77
2021/12/24 00:13:01;;;;;;;58.50;36.08;;;7.50;99.90;;;;;;5026057;28;20029;-77
2021/12/24 00:36:59;;;;;;;59.05;40.60;;;7.70;99.90;;;;;;5020696;28;20045;-76
2021/12/24 00:39:25;;;;;;;66.50;40.38;;;7.70;99.90;;;;;;5022372;28;20025;-75
2021/12/24 00:41:50;;;;;;;57.65;41.90;;;7.60;99.90;;;;;;5025029;28;20029;-76
2021/12/24 00:44:16;;;;;;;71.15;41.53;;;7.60;99.90;;;;;;5031765;28;20037;-75
2021/12/24 00:46:42;;;;;;;64.90;43.40;;;7.60;99.90;;;;;;5022608;28;20120;-76
2021/12/24 00:49:07;;;;;;;69.05;43.10;;;7.60;99.90;;;;;;5030607;28;20025;-76
2021/12/24 00:57:02;;;;;;;65.95;47.15;;;7.60;99.90;;;;;;5025327;28;20100;-76
2021/12/24 00:59:28;;;;;;;72.80;48.67;;;7.40;99.90;;;;;;5027401;28;20057;-76
2021/12/24 01:01:54;;;;;;;75.40;51.70;;;7.30;99.90;;;;;;5025902;28;20508;-77
2021/12/24 01:04:19;;;;;;;80.72;53.20;;;7.20;99.90;;;;;;5028784;28;20083;-76
2021/12/24 01:06:45;;;;;;;87.80;53.85;;;7.20;99.90;;;;;;5022018;28;20049;-77
2021/12/24 01:09:11;;;;;;;75.38;53.17;;;7.10;99.90;;;;;;5029932;28;20377;-77
2021/12/24 01:11:37;;;;;;;82.50;54.78;;;7.10;99.90;;;;;;5021944;28;20037;-75
2021/12/24 01:14:03;;;;;;;86.68;54.65;;;7.10;99.90;;;;;;5029831;28;20040;-76
2021/12/24 01:16:46;;;;;;;81.32;53.28;;;7.10;99.90;;;;;;5021554;28;20042;-76
2021/12/24 01:19:20;;;;;;;81.95;51.35;;;7.20;99.90;;;;;;5019718;28;20452;-76
2021/12/24 01:24:39;;;;;;;83.03;54.55;;;7.20;99.90;;;;;;5029466;28;20091;-76
2021/12/24 01:40:40;;;;;;;83.15;57.20;;;7.00;99.90;;;;;;5015447;28;20044;-76
2021/12/24 01:43:04;;;;;;;91.55;58.35;;;7.00;99.90;;;;;;5023291;28;20069;-76
2021/12/24 01:45:33;;;;;;;87.40;58.60;;;7.10;99.90;;;;;;5026143;28;20554;-77
2021/12/24 01:48:05;;;;;;;81.18;55.20;;;7.20;99.90;;;;;;5018914;28;20045;-76
2021/12/24 01:50:33;;;;;;;87.72;57.95;;;7.30;99.90;;;;;;5027404;28;20022;-76
2021/12/24 01:53:00;;;;;;;82.72;53.40;;;7.40;99.90;;;;;;5021129;28;20026;-76
2021/12/24 01:55:26;;;;;;;84.35;55.53;;;7.40;99.90;;;;;;5026513;28;20497;-76
2021/12/24 01:57:52;;;;;;;83.28;54.25;;;7.50;99.90;;;;;;5024419;28;20147;-76
2021/12/24 02:00:22;;;;;;;82.45;53.88;;;7.60;99.90;;;;;;5026442;28;20083;-76
2021/12/24 02:02:48;;;;;;;80.93;51.78;;;7.70;99.90;;;;;;5020403;28;20507;-76
2021/12/24 02:05:15;;;;;;;73.75;51.53;;;7.60;99.90;;;;;;5029462;28;20034;-76
2021/12/24 02:07:41;;;;;;;80.85;53.72;;;7.50;99.90;;;;;;5021052;28;20037;-76
2021/12/24 02:10:10;;;;;;;78.93;52.20;;;7.50;99.90;;;;;;5029335;28;20459;-76
2021/12/24 02:12:36;;;;;;;78.25;52.08;;;7.50;99.90;;;;;;5022188;28;20029;-75
2021/12/24 02:15:10;;;;;;;81.63;53.58;;;7.50;99.90;;;;;;5024711;28;20688;-76
2021/12/24 02:28:40;;;;;;;79.53;54.88;;;7.60;99.90;;;;;;5021142;28;20120;-76
2021/12/24 02:31:20;;;;;;;82.43;55.30;;;7.70;99.90;;;;;;5017497;28;20113;-77
2021/12/24 02:33:46;;;;;;;79.28;54.30;;;7.80;99.90;;;;;;5015847;28;20036;-75
2021/12/24 02:36:12;;;;;;;80.03;53.30;;;7.80;99.90;;;;;;5023146;28;20041;-76
2021/12/24 02:38:38;;;;;;;77.55;51.08;;;7.80;99.90;;;;;;5022513;28;20029;-76
2021/12/24 02:41:05;;;;;;;75.90;50.85;;;7.80;99.90;;;;;;5025790;28;20377;-76
2021/12/24 02:43:32;;;;;;;80.32;53.95;;;7.80;99.90;;;;;;5027139;28;20446;-76
2021/12/24 02:46:06;;;;;;;78.57;49.80;;;7.80;99.90;;;;;;5026921;28;20022;-76
2021/12/24 02:53:59;;;;;;;83.88;55.70;;;7.50;99.90;;;;;;5025043;28;20503;-76
2021/12/24 02:56:32;;;;;;;90.38;55.38;;;7.40;99.90;;;;;;5019610;28;20045;-76
2021/12/24 02:59:00;;;;;;;87.97;56.13;;;7.30;99.90;;;;;;5022612;28;20021;-76
2021/12/24 03:01:30;;;;;;;90.20;57.75;;;7.40;99.90;;;;;;5019297;28;20032;-75
2021/12/24 03:03:56;;;;;;;92.07;57.88;;;7.50;99.90;;;;;;5024458;28;20021;-76
2021/12/24 03:06:25;;;;;;;84.50;55.40;;;7.60;99.90;;;;;;5023802;28;20477;-76
2021/12/24 03:08:51;;;;;;;83.78;53.20;;;7.70;99.90;;;;;;5026889;28;20029;-76
2021/12/24 03:11:17;;;;;;;88.43;55.38;;;7.70;99.90;;;;;;5021803;28;20021;-75
2021/12/24 03:13:43;;;;;;;84.10;57.03;;;7.70;99.90;;;;;;5028581;28;20480;-76
2021/12/24 03:16:09;;;;;;;85.85;57.00;;;7.70;99.90;;;;;;5025471;28;20033;-76
2021/12/24 03:18:41;;;;;;;93.18;58.60;;;7.70;99.90;;;;;;5027279;28;20037;-76
2021/12/24 03:21:31;;;;;;;98.95;58.55;;;7.70;99.90;;;;;;5014408;28;20022;-76
2021/12/24 03:26:28;;;;;;;91.15;57.05;;;7.70;99.90;;;;;;5019681;28;20127;-76
2021/12/24 03:28:54;;;;;;;98.22;59.88;;;7.70;99.90;;;;;;5023792;28;20542;-76
2021/12/24 03:31:19;;;;;;;97.43;61.78;;;7.70;99.90;;;;;;5018630;28;20038;-76
2021/12/24 03:33:45;;;;;;;104.05;61.25;;;7.80;99.90;;;;;;5035635;28;20053;-76
2021/12/24 03:36:11;;;;;;;99.55;60.00;;;7.80;99.90;;;;;;5026283;28;20037;-77
2021/12/24 03:38:37;;;;;;;112.07;62.78;;;7.80;99.90;;;;;;5023297;28;20072;-76
2021/12/24 03:41:04;;;;;;;107.50;64.25;;;7.70;99.90;;;;;;5024860;28;20044;-76
2021/12/24 03:43:30;;;;;;;105.05;64.45;;;7.70;99.90;;;;;;5019089;28;20124;-77
2021/12/24 03:48:27;;;;;;;119.90;69.32;;;7.60;99.90;;;;;;5018435;28;20076;-76
2021/12/24 03:56:03;;;;;;;129.55;74.05;;;7.30;99.90;;;;;;5023394;28;20033;-76
2021/12/24 03:58:29;;;;;;;114.75;69.57;;;7.30;99.90;;;;;;5025568;28;20034;-76
2021/12/24 04:00:55;;;;;;;111.30;70.05;;;7.20;99.90;;;;;;5022514;28;20030;-76
2021/12/24 04:03:21;;;;;;;104.60;68.00;;;7.20;99.90;;;;;;5021692;28;20487;-76
2021/12/24 04:05:47;;;;;;;116.88;69.65;;;7.20;99.90;;;;;;5023042;28;20030;-76
2021/12/24 04:08:14;;;;;;;105.82;68.50;;;7.20;99.90;;;;;;5024015;28;20033;-76
2021/12/24 04:10:40;;;;;;;111.20;70.97;;;7.20;99.90;;;;;;5025428;28;20033;-76
2021/12/24 04:13:11;;;;;;;122.07;71.43;;;7.20;99.90;;;;;;5024740;28;20559;-76
2021/12/24 04:15:38;;;;;;;127.60;73.90;;;7.20;99.90;;;;;;5023816;28;20052;-76
2021/12/24 04:18:21;;;;;;;116.43;71.88;;;7.10;99.90;;;;;;5019377;28;20037;-76
2021/12/24 04:26:16;;;;;;;128.13;75.22;;;7.10;99.90;;;;;;5013773;28;20048;-75
2021/12/24 04:28:42;;;;;;;133.85;75.95;;;7.10;99.90;;;;;;5018949;28;20108;-76
2021/12/24 04:31:08;;;;;;;128.63;78.65;;;7.10;99.90;;;;;;5021106;28;20038;-76
2021/12/24 04:33:37;;;;;;;132.10;77.90;;;7.10;99.90;;;;;;5025133;28;20021;-76
2021/12/24 04:36:39;;;;;;;127.78;77.82;;;7.20;99.90;;;;;;5024262;28;20029;-76
2021/12/24 05:03:34;;;;;;;124.47;74.40;;;7.20;99.90;;;;;;5028916;28;20063;-76
2021/12/24 05:06:26;;;;;;;115.20;72.40;;;7.30;99.90;;;;;;5027643;28;20025;-76
2021/12/24 05:11:20;;;;;;;127.70;74.47;;;7.40;99.90;;;;;;5028733;28;20031;-76
2021/12/24 05:13:46;;;;;;;118.28;75.90;;;7.40;99.90;;;;;;5027152;28;20064;-76
2021/12/24 05:16:38;;;;;;;121.53;72.60;;;7.40;99.90;;;;;;5024723;28;20042;-76
2021/12/24 05:21:49;;;;;;;113.10;70.85;;;7.50;99.90;;;;;;5021243;28;20038;-76
2021/12/24 05:24:18;;;;;;;123.07;74.18;;;7.50;99.90;;;;;;5026866;28;20468;-76
2021/12/24 05:26:46;;;;;;;110.88;69.35;;;7.50;99.90;;;;;;5021732;28;20034;-76
2021/12/24 05:29:14;;;;;;;117.32;71.30;;;7.60;99.90;;;;;;5023691;28;20096;-76
2021/12/24 05:31:40;;;;;;;119.88;74.30;;;7.60;99.90;;;;;;5024601;28;20080;-76
2021/12/24 05:34:06;;;;;;;113.65;73.07;;;7.50;99.90;;;;;;5030888;28;20052;-76
2021/12/24 05:36:32;;;;;;;112.88;70.53;;;7.60;99.90;;;;;;5021293;28;20030;-76
2021/12/24 05:38:58;;;;;;;112.30;67.43;;;7.70;99.90;;;;;;5026163;28;20033;-77
2021/12/24 05:41:24;;;;;;;111.82;69.53;;;7.70;99.90;;;;;;5027145;28;20112;-76
2021/12/24 05:43:50;;;;;;;120.60;69.72;;;7.60;99.90;;;;;;5030205;28;20091;-76
2021/12/24 05:46:17;;;;;;;108.35;67.97;;;7.60;99.90;;;;;;5022968;28;20025;-76
2021/12/24 05:48:42;;;;;;;120.55;68.70;;;7.70;99.90;;;;;;5024916;28;20037;-76
2021/12/24 05:51:09;;;;;;;150.25;77.60;;;7.80;99.90;;;;;;5022963;28;20381;-76
2021/12/24 05:53:36;;;;;;;146.05;78.55;;;7.80;99.90;;;;;;5025076;28;20476;-76
2021/12/24 05:56:02;;;;;;;403.63;146.90;;;7.90;99.90;;;;;;5026971;28;20040;-76
2021/12/24 05:58:28;;;;;;;219.15;100.32;;;7.90;99.90;;;;;;5026410;28;20059;-76
2021/12/24 06:00:54;;;;;;;203.43;94.40;;;8.00;99.90;;;;;;5022684;28;20464;-76
2021/12/24 06:03:20;;;;;;;148.63;79.80;;;8.00;99.90;;;;;;5018002;28;20038;-77
2021/12/24 06:05:46;;;;;;;116.88;69.53;;;8.00;99.90;;;;;;5017736;28;20033;-78
2021/12/24 06:08:12;;;;;;;111.90;67.90;;;8.00;99.90;;;;;;5021406;28;20068;-77
2021/12/24 06:10:39;;;;;;;116.50;70.47;;;8.10;99.90;;;;;;5019546;28;20029;-77
2021/12/24 06:13:06;;;;;;;104.82;68.60;;;8.10;99.90;;;;;;5024323;28;20026;-77
2021/12/24 06:15:41;;;;;;;107.00;68.75;;;8.10;99.90;;;;;;5027168;28;20084;-77
2021/12/24 06:18:13;;;;;;;102.60;68.30;;;8.10;99.90;;;;;;5019967;28;20069;-76
2021/12/24 06:20:39;;;;;;;105.97;67.57;;;8.00;99.90;;;;;;5014867;28;20076;-77
2021/12/24 06:23:07;;;;;;;112.28;66.88;;;8.00;99.90;;;;;;5020858;28;20037;-77
2021/12/24 06:25:33;;;;;;;114.60;67.25;;;8.00;99.90;;;;;;5018525;28;20476;-77
2021/12/24 06:27:59;;;;;;;106.72;65.65;;;8.00;99.90;;;;;;5018596;28;20018;-77
2021/12/24 06:30:29;;;;;;;113.05;67.25;;;8.00;99.90;;;;;;5025314;28;20034;-76
2021/12/24 06:32:55;;;;;;;118.32;66.88;;;8.10;99.90;;;;;;5023943;28;20025;-77
2021/12/24 06:35:21;;;;;;;109.95;65.05;;;8.10;99.90;;;;;;5028260;28;20056;-77
2021/12/24 06:37:47;;;;;;;117.35;67.80;;;8.00;99.90;;;;;;5020221;28;20622;-77
2021/12/24 06:40:12;;;;;;;114.80;67.25;;;8.00;99.90;;;;;;5027099;28;20034;-77
2021/12/24 06:42:38;;;;;;;120.68;67.13;;;7.90;99.90;;;;;;5022275;28;20518;-77
2021/12/24 06:45:04;;;;;;;103.18;66.10;;;8.00;99.90;;;;;;5026860;28;20021;-76
2021/12/24 06:47:30;;;;;;;110.13;66.40;;;8.00;99.90;;;;;;5021446;28;20045;-77
2021/12/24 06:49:57;;;;;;;119.13;65.50;;;8.00;99.90;;;;;;5023971;28;20034;-76
2021/12/24 06:52:23;;;;;;;102.82;65.28;;;8.00;99.90;;;;;;5021142;28;20038;-77
2021/12/24 06:54:49;;;;;;;111.45;67.63;;;8.00;99.90;;;;;;5025575;28;20518;-77
2021/12/24 06:57:17;;;;;;;121.72;70.50;;;8.10;99.90;;;;;;5021538;28;20498;-76
2021/12/24 06:59:43;;;;;;;109.80;65.53;;;8.10;99.90;;;;;;5027808;28;20476;-76
2021/12/24 07:02:09;;;;;;;108.63;68.13;;;8.10;99.90;;;;;;5019497;28;20503;-76
2021/12/24 07:04:35;;;;;;;120.68;67.53;;;8.10;99.90;;;;;;5016431;28;20124;-76
2021/12/24 07:07:01;;;;;;;115.78;68.57;;;8.10;99.90;;;;;;5022780;28;20056;-77
2021/12/24 07:09:26;;;;;;;111.00;68.88;;;8.10;99.90;;;;;;5024375;28;20033;-77
2021/12/24 07:11:52;;;;;;;112.53;69.18;;;8.10;99.90;;;;;;5021125;28;20044;-77
2021/12/24 07:14:18;;;;;;;110.38;66.57;;;8.10;99.90;;;;;;5026349;28;20036;-76
2021/12/24 07:16:44;;;;;;;117.90;69.50;;;8.10;99.90;;;;;;5019331;28;20050;-76
2021/12/24 07:19:11;;;;;;;104.97;68.18;;;8.20;99.90;;;;;;5024517;28;20047;-77
2021/12/24 07:21:38;;;;;;;115.90;69.85;;;8.10;99.90;;;;;;5020718;28;20033;-77
2021/12/24 07:24:06;;;;;;;126.00;71.75;;;8.10;99.90;;;;;;5022703;28;20025;-76
2021/12/24 07:26:31;;;;;;;123.07;69.75;;;8.10;99.90;;;;;;5025571;28;20593;-77
2021/12/24 07:28:58;;;;;;;128.15;73.43;;;7.90;99.90;;;;;;5025715;28;20040;-79
2021/12/24 07:31:24;;;;;;;119.43;71.13;;;7.90;99.90;;;;;;5024855;28;20018;-76
2021/12/24 07:33:49;;;;;;;134.50;74.65;;;7.80;99.90;;;;;;5028506;28;20099;-77
2021/12/24 07:36:15;;;;;;;126.03;75.03;;;7.80;99.90;;;;;;5023787;28;20032;-79
2021/12/24 07:38:41;;;;;;;129.20;76.13;;;7.70;99.90;;;;;;5027861;28;20041;-76
2021/12/24 07:41:07;;;;;;;133.07;78.90;;;7.70;99.90;;;;;;5023113;28;20522;-77
2021/12/24 07:43:33;;;;;;;140.30;82.40;;;7.60;99.90;;;;;;5026253;28;20029;-76
2021/12/24 07:45:59;;;;;;;149.75;84.10;;;7.60;99.90;;;;;;5024293;28;20041;-76
2021/12/24 07:48:30;;;;;;;154.93;86.25;;;7.50;99.90;;;;;;5023946;28;20034;-77
2021/12/24 07:53:25;;;;;;;151.75;88.28;;;7.50;99.90;;;;;;5025240;28;20185;-76
2021/12/24 07:55:54;;;;;;;163.02;92.38;;;7.40;99.90;;;;;;5014541;28;20101;-76
2021/12/24 07:58:20;;;;;;;170.27;91.25;;;7.50;99.90;;;;;;5021111;28;20034;-76
2021/12/24 08:00:46;;;;;;;154.57;85.28;;;7.50;99.90;;;;;;5023780;28;20900;-75
2021/12/24 08:03:12;;;;;;;133.70;77.13;;;7.60;99.90;;;;;;5024984;28;20030;-75
2021/12/24 08:05:40;;;;;;;139.93;76.10;;;7.70;99.90;;;;;;5025992;28;20022;-76
2021/12/24 08:08:07;;;;;;;127.82;75.00;;;7.90;99.90;;;;;;5017321;28;20641;-76
2021/12/24 08:10:34;;;;;;;127.00;74.63;;;7.90;99.90;;;;;;5022923;28;20400;-76
2021/12/24 08:13:01;;;;;;;121.82;74.38;;;8.00;99.90;;;;;;5023174;28;20416;-76
2021/12/24 08:15:27;;;;;;;129.70;76.45;;;8.10;99.90;;;;;;5029176;28;20061;-75
2021/12/24 08:17:53;;;;;;;129.18;76.72;;;8.20;99.90;;;;;;5024117;28;20077;-75
2021/12/24 08:20:23;;;;;;;118.78;72.35;;;8.10;99.90;;;;;;5029623;28;20052;-76
2021/12/24 08:22:50;;;;;;;125.80;74.65;;;8.00;99.90;;;;;;5022737;28;20049;-76
2021/12/24 08:25:17;;;;;;;129.82;73.90;;;8.00;99.90;;;;;;5028993;28;20033;-75
2021/12/24 08:27:42;;;;;;;131.07;76.55;;;8.00;99.90;;;;;;5021141;28;20034;-76
2021/12/24 08:30:09;;;;;;;129.65;76.65;;;7.80;99.90;;;;;;5032935;28;20032;-75
2021/12/24 08:32:38;;;;;;;129.55;76.60;;;7.70;99.90;;;;;;5024146;28;20026;-77
2021/12/24 08:35:16;;;;;;;128.07;76.57;;;7.70;99.90;;;;;;5025887;28;20029;-76
2021/12/24 08:37:42;;;;;;;131.88;78.90;;;7.70;99.90;;;;;;5022416;28;20044;-77
2021/12/24 08:40:09;;;;;;;137.85;77.32;;;7.60;99.90;;;;;;5029354;28;20014;-77
2021/12/24 08:42:35;;;;;;;141.40;80.57;;;7.60;99.90;;;;;;5023018;28;20047;-76
2021/12/24 08:45:01;;;;;;;141.48;83.43;;;7.60;99.90;;;;;;5028453;28;20025;-76
2021/12/24 08:47:26;;;;;;;142.02;77.72;;;7.60;99.90;;;;;;5019792;28;20048;-76
2021/12/24 08:49:52;;;;;;;136.20;81.30;;;7.60;99.90;;;;;;5024642;28;20112;-76
2021/12/24 08:52:18;;;;;;;140.55;80.43;;;7.60;99.90;;;;;;5017336;28;20045;-76
2021/12/24 08:54:44;;;;;;;151.65;79.47;;;7.60;99.90;;;;;;5025617;28;20073;-76
2021/12/24 08:57:09;;;;;;;150.77;80.95;;;7.70;99.90;;;;;;5022754;28;20025;-76
2021/12/24 08:59:35;;;;;;;152.00;80.38;;;7.60;99.90;;;;;;5030438;28;20033;-76
2021/12/24 09:02:03;;;;;;;157.13;82.10;;;7.60;99.90;;;;;;5025071;28;20026;-76
2021/12/24 09:04:29;;;;;;;149.65;84.18;;;7.50;99.90;;;;;;5028708;28;20112;-77
2021/12/24 09:06:55;;;;;;;143.27;81.38;;;7.60;99.90;;;;;;5023562;28;20053;-76
2021/12/24 09:09:21;;;;;;;148.88;81.25;;;7.70;99.90;;;;;;5027822;28;20049;-76
2021/12/24 09:11:47;;;;;;;164.10;85.15;;;7.70;99.90;;;;;;5020719;28;20052;-76
2021/12/24 09:14:17;;;;;;;149.27;81.00;;;7.70;99.90;;;;;;5031221;28;20032;-76
2021/12/24 09:16:44;;;;;;;162.52;86.07;;;7.70;99.90;;;;;;5022328;28;20423;-76
2021/12/24 09:19:13;;;;;;;146.63;79.95;;;7.80;99.90;;;;;;5028209;28;20106;-76
2021/12/24 09:21:39;;;;;;;161.98;82.75;;;7.70;99.90;;;;;;5026140;28;20025;-75
2021/12/24 09:24:07;;;;;;;160.55;85.88;;;7.70;99.90;;;;;;5032311;28;20028;-76
2021/12/24 09:26:34;;;;;;;148.07;84.10;;;7.60;99.90;;;;;;5020642;28;20033;-76
2021/12/24 09:29:01;;;;;;;172.57;85.45;;;7.60;99.90;;;;;;5040944;28;20033;-76
2021/12/24 09:31:27;;;;;;;163.48;86.10;;;7.60;99.90;;;;;;5031950;28;20087;-76
2021/12/24 09:33:54;;;;;;;165.82;85.25;;;7.50;99.90;;;;;;5030731;28;20033;-76
2021/12/24 09:36:25;;;;;;;169.75;83.80;;;7.60;99.90;;;;;;5022269;28;20029;-76
2021/12/24 09:38:55;;;;;;;177.43;89.28;;;7.50;99.90;;;;;;5030851;28;20030;-75
2021/12/24 09:41:22;;;;;;;169.07;87.43;;;7.60;99.90;;;;;;5024414;28;20477;-77
2021/12/24 09:43:49;;;;;;;170.65;85.05;;;7.60;99.90;;;;;;5032758;28;20037;-77
2021/12/24 09:46:15;;;;;;;156.27;83.53;;;7.70;99.90;;;;;;5024133;28;20021;-75
2021/12/24 09:48:41;;;;;;;176.57;86.57;;;7.70;99.90;;;;;;5026329;28;20035;-75
2021/12/24 09:51:07;;;;;;;166.43;85.72;;;7.80;99.90;;;;;;5024603;28;20030;-75
2021/12/24 09:53:36;;;;;;;171.23;86.28;;;7.80;99.90;;;;;;5025511;28;20029;-77
2021/12/24 09:56:05;;;;;;;174.48;88.55;;;7.70;99.90;;;;;;5025069;28;20036;-75
2021/12/24 09:58:32;;;;;;;185.93;95.30;;;7.60;99.90;;;;;;5017545;28;20045;-75
2021/12/24 10:00:59;;;;;;;181.52;91.07;;;7.50;99.90;;;;;;5022543;28;20021;-76
2021/12/24 10:03:30;;;;;;;191.60;93.55;;;7.40;99.90;;;;;;5024217;28;20041;-75
2021/12/24 10:05:57;;;;;;;179.80;89.38;;;7.40;99.90;;;;;;5024220;28;20087;-80
2021/12/24 10:08:24;;;;;;;189.02;95.95;;;7.40;99.90;;;;;;5036872;28;20030;-77
2021/12/24 10:10:53;;;;;;;183.02;90.38;;;7.50;99.90;;;;;;5026291;28;20029;-77
2021/12/24 10:13:38;;;;;;;179.68;90.50;;;7.50;99.90;;;;;;5020115;28;20049;-76
2021/12/24 10:16:21;;;;;;;194.63;93.32;;;7.60;99.90;;;;;;5022199;28;20503;-76
2021/12/24 10:18:53;;;;;;;190.70;91.00;;;7.60;99.90;;;;;;5023165;28;20457;-76
2021/12/24 10:21:25;;;;;;;188.50;88.50;;;7.60;99.90;;;;;;5022298;28;20026;-76
2021/12/24 10:24:14;;;;;;;192.13;91.15;;;7.70;99.90;;;;;;5029185;28;20424;-76
2021/12/24 10:26:51;;;;;;;173.52;86.57;;;7.80;99.90;;;;;;5033976;28;20550;-75
2021/12/24 10:29:27;;;;;;;165.13;85.13;;;7.90;99.90;;;;;;5017143;28;20045;-76
2021/12/24 10:31:55;;;;;;;155.00;85.18;;;8.00;99.90;;;;;;5018783;28;20052;-75
2021/12/24 10:34:32;;;;;;;160.55;86.22;;;8.20;99.90;;;;;;5020621;28;20040;-75
2021/12/24 10:37:13;;;;;;;158.00;87.95;;;8.20;99.90;;;;;;5021467;28;20042;-77
2021/12/24 10:39:43;;;;;;;148.75;86.47;;;8.30;99.90;;;;;;5029059;28;20021;-75
2021/12/24 10:42:12;;;;;;;151.45;85.15;;;8.30;99.90;;;;;;5021862;28;20160;-75
2021/12/24 10:44:40;;;;;;;162.70;86.70;;;8.40;99.90;;;;;;5028634;28;20033;-74
2021/12/24 10:47:17;;;;;;;155.48;86.68;;;8.40;99.90;;;;;;5019273;28;20057;-76
2021/12/24 10:50:07;;;;;;;162.35;89.35;;;8.40;99.90;;;;;;5026748;28;20026;-75
2021/12/24 10:53:34;;;;;;;168.13;87.78;;;8.40;99.90;;;;;;5033124;28;20040;-76
2021/12/24 10:55:38;;;;;;;163.27;89.65;;;8.30;99.90;;;;;;5025825;28;20038;-76
2021/12/24 10:58:13;;;;;;;;;;;8.30;99.90;;;;;;5041123;28;20112;-76
2021/12/24 11:00:48;;;;;;;179.15;87.03;;;8.20;99.90;;;;;;5036054;28;20384;-76
2021/12/24 11:03:22;;;;;;;163.60;90.80;;;8.30;99.90;;;;;;5046057;28;20013;-76
2021/12/24 11:05:53;;;;;;;178.90;92.82;;;8.30;99.90;;;;;;5055796;28;20030;-75
2021/12/24 11:08:24;;;;;;;167.18;92.47;;;8.30;99.90;;;;;;5053363;28;20450;-75
2021/12/24 11:10:56;;;;;;;162.98;89.47;;;8.30;99.90;;;;;;5048718;28;20026;-75
2021/12/24 11:13:29;;;;;;;167.02;92.13;;;8.30;99.90;;;;;;5053042;28;20017;-75
2021/12/24 11:15:57;;;;;;;171.23;89.32;;;8.30;99.90;;;;;;5052823;28;20415;-74
2021/12/24 11:18:32;;;;;;;166.52;89.78;;;8.30;99.90;;;;;;5048380;28;20117;-75
2021/12/24 11:21:05;;;;;;;165.82;91.57;;;8.40;99.90;;;;;;5046650;28;20049;-76
2021/12/24 11:23:34;;;;;;;163.07;89.93;;;8.30;99.90;;;;;;5049916;28;20025;-76
2021/12/24 11:26:14;;;;;;;177.18;94.38;;;8.40;99.90;;;;;;5045436;28;20104;-76
2021/12/24 11:28:41;;;;;;;176.98;91.10;;;8.30;99.90;;;;;;5049932;28;20029;-76
2021/12/24 11:31:18;;;;;;;164.00;89.97;;;8.30;99.90;;;;;;5049822;28;20387;-76
2021/12/24 11:33:46;;;;;;;168.00;90.82;;;8.40;99.90;;;;;;5052165;28;20059;-76
2021/12/24 11:36:15;;;;;;;184.30;92.10;;;8.40;99.90;;;;;;5043788;28;20034;-74
2021/12/24 11:38:52;;;;;;;171.35;90.88;;;8.30;99.90;;;;;;5043331;28;20122;-75
2021/12/24 11:41:21;;;;;;;171.82;89.72;;;8.30;99.90;;;;;;5049877;28;20028;-75
2021/12/24 11:43:52;;;;;;;170.20;91.07;;;8.30;99.90;;;;;;5046454;28;20032;-76
2021/12/24 11:46:19;;;;;;;179.13;89.97;;;8.30;99.90;;;;;;5045608;28;20464;-76
2021/12/24 11:48:50;;;;;;;176.98;89.65;;;8.30;99.90;;;;;;5053127;28;20531;-76
2021/12/24 11:51:29;;;;;;;186.30;95.28;;;8.20;99.90;;;;;;5053279;28;20474;-77
2021/12/24 11:54:00;;;;;;;179.55;91.10;;;8.20;99.90;;;;;;5051708;28;20053;-76
2021/12/24 11:56:26;;;;;;;186.90;93.63;;;8.20;99.90;;;;;;5046305;28;20056;-76
2021/12/24 11:58:54;;;;;;;174.05;92.90;;;8.20;99.90;;;;;;5048319;28;20076;-76
2021/12/24 12:01:23;;;;;;;169.57;91.43;;;8.20;99.90;;;;;;5048218;28;20104;-76
2021/12/24 12:03:54;;;;;;;176.32;89.93;;;8.20;99.90;;;;;;5047642;28;20029;-80
2021/12/24 12:06:23;;;;;;;169.02;91.28;;;8.20;99.90;;;;;;5043275;28;20543;-77
2021/12/24 12:08:53;;;;;;;178.38;89.28;;;8.30;99.90;;;;;;5055035;28;20036;-75
2021/12/24 12:11:28;;;;;;;170.55;89.93;;;8.30;99.90;;;;;;5050169;28;20018;-77
2021/12/24 12:13:56;;;;;;;164.48;90.07;;;8.30;99.90;;;;;;5052988;28;20020;-77
2021/12/24 12:16:38;;;;;;;165.82;90.13;;;8.20;99.90;;;;;;5044804;28;20120;-76
2021/12/24 12:19:09;;;;;;;;;;;8.20;99.90;;;;;;5055037;28;20043;-77
2021/12/24 12:21:41;;;;;;;184.80;99.75;;;8.10;99.90;;;;;;5043958;28;19999;-77
2021/12/24 12:26:44;;;;;;;144.45;82.55;;;7.90;99.90;;;;;;5051514;28;20037;-77
2021/12/24 12:29:43;;;;;;;150.63;80.95;;;8.00;99.90;;;;;;5055045;28;20021;-78
2021/12/24 12:32:17;;;;;;;144.75;83.88;;;8.00;99.90;;;;;;5040133;28;20029;-77
2021/12/24 12:34:43;;;;;;;142.25;80.95;;;8.00;99.90;;;;;;5049879;28;20039;-78
2021/12/24 12:37:18;;;;;;;139.45;78.80;;;8.10;99.90;;;;;;5042656;28;20041;-77
2021/12/24 12:39:49;;;;;;;159.82;85.22;;;8.10;99.90;;;;;;5047692;28;20942;-77
2021/12/24 12:42:16;;;;;;;162.00;85.50;;;8.10;99.90;;;;;;5039504;28;20060;-76
2021/12/24 12:44:49;;;;;;;167.82;89.53;;;8.00;99.90;;;;;;5041966;28;20114;-76
2021/12/24 12:47:24;;;;;;;155.43;84.97;;;7.90;99.90;;;;;;5039334;28;20040;-77
2021/12/24 12:50:10;;;;;;;144.50;80.15;;;7.90;99.90;;;;;;5032731;28;20021;-78
2021/12/24 12:52:36;;;;;;;156.30;80.40;;;8.00;99.90;;;;;;5040998;28;20746;-77
2021/12/24 12:55:03;;;;;;;134.25;76.25;;;8.00;99.90;;;;;;5046920;28;20033;-78
2021/12/24 12:57:33;;;;;;;141.55;78.55;;;8.00;99.90;;;;;;5042880;28;20041;-78
2021/12/24 13:00:08;;;;;;;152.82;80.05;;;8.10;99.90;;;;;;5049006;28;20124;-77
2021/12/24 13:02:56;;;;;;;150.88;81.18;;;8.10;99.90;;;;;;5036232;28;20068;-77
2021/12/24 13:05:26;;;;;;;152.10;78.00;;;8.00;99.90;;;;;;5048346;28;20017;-79
2021/12/24 13:07:53;;;;;;;142.07;77.65;;;8.00;99.90;;;;;;5048393;28;20037;-77
2021/12/24 13:10:20;;;;;;;144.27;79.35;;;8.10;99.90;;;;;;5047192;28;20024;-77
2021/12/24 13:12:46;;;;;;;147.68;82.70;;;8.20;99.90;;;;;;5043237;28;20162;-77
2021/12/24 13:15:16;;;;;;;143.30;80.43;;;8.20;99.90;;;;;;5038155;28;20539;-77
2021/12/24 13:17:46;;;;;;;151.98;85.63;;;8.20;99.90;;;;;;5040773;28;20077;-78
2021/12/24 13:20:45;;;;;;;178.45;91.97;;;8.10;99.90;;;;;;5047039;28;20029;-78
2021/12/24 13:23:21;;;;;;;169.32;89.53;;;7.90;99.90;;;;;;5038269;28;20068;-78
2021/12/24 13:25:47;;;;;;;167.20;86.65;;;7.90;99.90;;;;;;5033945;28;20475;-76
2021/12/24 13:28:12;;;;;;;168.95;84.82;;;7.90;99.90;;;;;;5043204;28;20032;-78
2021/12/24 13:30:38;;;;;;;160.70;83.32;;;7.90;99.90;;;;;;5046351;28;20036;-77
2021/12/24 13:33:07;;;;;;;155.27;80.20;;;8.00;99.90;;;;;;5042537;28;20024;-78
2021/12/24 13:35:42;;;;;;;142.32;74.00;;;8.00;99.90;;;;;;5046488;28;20421;-78
2021/12/24 13:38:16;;;;;;;141.27;73.90;;;8.10;99.90;;;;;;5035002;28;20095;-78
2021/12/24 13:40:42;;;;;;;145.27;73.50;;;8.00;99.90;;;;;;5032744;28;20869;-77
2021/12/24 13:43:12;;;;;;;142.88;75.10;;;8.10;99.90;;;;;;5043917;28;20029;-76
2021/12/24 13:45:41;;;;;;;157.63;79.18;;;8.10;99.90;;;;;;5044392;28;20029;-76
2021/12/24 13:48:34;;;;;;;162.23;78.93;;;8.10;99.90;;;;;;5044170;28;20028;-79
2021/12/24 13:56:36;;;;;;;146.05;74.35;;;8.10;99.90;;;;;;5043912;28;20408;-78
2021/12/24 13:59:02;;;;;;;144.95;72.65;;;8.00;99.90;;;;;;5044452;28;20126;-77
2021/12/24 14:01:30;;;;;;;136.70;71.13;;;8.00;99.90;;;;;;5042217;28;20068;-77
2021/12/24 14:03:57;;;;;;;148.05;73.93;;;8.10;99.90;;;;;;5056419;28;20032;-77
2021/12/24 14:06:59;;;;;;;124.75;66.18;;;8.10;99.90;;;;;;5041583;28;20100;-84
2021/12/24 14:09:27;;;;;;;112.65;59.22;;;8.20;99.90;;;;;;4992151;28;20030;-79
2021/12/24 14:11:54;;;;;;;106.13;59.70;;;8.20;99.90;;;;;;5027601;28;20036;-78
2021/12/24 14:14:37;;;;;;;137.30;81.18;;;8.10;99.90;;;;;;5035641;28;20504;-78
2021/12/24 14:20:07;;;;;;;97.85;57.53;;;8.00;99.90;;;;;;5051438;28;20040;-78
2021/12/24 14:22:35;;;;;;;104.13;57.35;;;8.00;99.90;;;;;;5041668;28;20034;-79
2021/12/24 14:25:08;;;;;;;102.00;60.80;;;8.10;99.90;;;;;;5043116;28;20032;-79
2021/12/24 14:27:37;;;;;;;106.68;57.08;;;8.10;99.90;;;;;;5056656;28;20044;-86
2021/12/24 14:30:11;;;;;;;101.43;57.38;;;8.20;99.90;;;;;;5048272;28;20083;-80
2021/12/24 14:32:39;;;;;;;92.80;52.90;;;8.30;99.90;;;;;;5040699;28;20025;-81
2021/12/24 14:35:15;;;;;;;93.03;52.22;;;8.30;99.90;;;;;;5043675;28;20554;-81
2021/12/24 14:37:43;;;;;;;95.65;54.92;;;8.30;99.90;;;;;;5041125;28;20079;-79
2021/12/24 14:40:08;;;;;;;93.35;56.10;;;8.30;99.90;;;;;;5049694;28;20018;-77